sensor_id;sensor_type;location;lat;lon;timestamp;temperature;humidity
48744;DHT22;34538;48.836;9.174;2023-06-26T00:00:48;18.50;95.40
48744;DHT22;34538;48.836;9.174;2023-06-26T00:03:15;18.50;95.80
48744;DHT22;34538;48.836;9.174;2023-06-26T00:05:42;18.40;96.00
48744;DHT22;34538;48.836;9.174;2023-06-26T00:08:09;18.40;96.40
48744;DHT22;34538;48.836;9.174;2023-06-26T00:10:36;18.40;96.70
48744;DHT22;34538;48.836;9.174;2023-06-26T00:13:02;18.30;96.80
48744;DHT22;34538;48.836;9.174;2023-06-26T00:15:30;18.30;96.70
48744;DHT22;34538;48.836;9.174;2023-06-26T00:17:57;18.30;97.50
48744;DHT22;34538;48.836;9.174;2023-06-26T00:20:24;18.20;97.80
48744;DHT22;34538;48.836;9.174;2023-06-26T00:22:51;18.20;97.80
48744;DHT22;34538;48.836;9.174;2023-06-26T00:25:19;18.20;98.30
48744;DHT22;34538;48.836;9.174;2023-06-26T00:27:46;18.10;98.40
48744;DHT22;34538;48.836;9.174;2023-06-26T00:30:13;18.10;98.50
48744;DHT22;34538;48.836;9.174;2023-06-26T00:32:41;18.10;98.50
48744;DHT22;34538;48.836;9.174;2023-06-26T00:35:08;18.10;99.40
48744;DHT22;34538;48.836;9.174;2023-06-26T00:37:36;18.00;99.60
48744;DHT22;34538;48.836;9.174;2023-06-26T00:40:03;18.00;99.90
48744;DHT22;34538;48.836;9.174;2023-06-26T00:42:32;17.90;99.90
48744;DHT22;34538;48.836;9.174;2023-06-26T00:44:59;17.90;99.90
48744;DHT22;34538;48.836;9.174;2023-06-26T00:47:26;17.90;99.90
48744;DHT22;34538;48.836;9.174;2023-06-26T00:49:54;17.80;99.90
48744;DHT22;34538;48.836;9.174;2023-06-26T00:52:22;17.80;99.90
48744;DHT22;34538;48.836;9.174;2023-06-26T00:54:50;17.80;99.90
48744;DHT22;34538;48.836;9.174;2023-06-26T00:57:17;17.80;99.90
48744;DHT22;34538;48.836;9.174;2023-06-26T00:59:44;17.80;99.90
48744;DHT22;34538;48.836;9.174;2023-06-26T01:02:11;17.70;99.90
48744;DHT22;34538;48.836;9.174;2023-06-26T01:04:43;17.70;99.90
48744;DHT22;34538;48.836;9.174;2023-06-26T01:07:14;17.70;99.90
48744;DHT22;34538;48.836;9.174;2023-06-26T01:09:42;17.70;99.90
48744;DHT22;34538;48.836;9.174;2023-06-26T01:12:09;17.60;99.90
48744;DHT22;34538;48.836;9.174;2023-06-26T01:14:36;17.60;99.90
48744;DHT22;34538;48.836;9.174;2023-06-26T01:17:04;17.60;99.90
48744;DHT22;34538;48.836;9.174;2023-06-26T01:19:32;17.60;99.90
48744;DHT22;34538;48.836;9.174;2023-06-26T01:22:08;17.60;99.90
48744;DHT22;34538;48.836;9.174;2023-06-26T01:24:47;17.60;99.90
48744;DHT22;34538;48.836;9.174;2023-06-26T01:27:22;17.60;99.90
48744;DHT22;34538;48.836;9.174;2023-06-26T01:29:50;17.50;99.90
48744;DHT22;34538;48.836;9.174;2023-06-26T01:32:18;17.50;99.90
48744;DHT22;34538;48.836;9.174;2023-06-26T01:34:45;17.50;99.90
48744;DHT22;34538;48.836;9.174;2023-06-26T01:37:12;17.40;99.90
48744;DHT22;34538;48.836;9.174;2023-06-26T01:39:39;17.40;99.90
48744;DHT22;34538;48.836;9.174;2023-06-26T01:42:07;17.40;99.90
48744;DHT22;34538;48.836;9.174;2023-06-26T01:44:37;17.40;99.90
48744;DHT22;34538;48.836;9.174;2023-06-26T01:47:08;17.30;99.90
48744;DHT22;34538;48.836;9.174;2023-06-26T01:49:46;17.30;99.90
48744;DHT22;34538;48.836;9.174;2023-06-26T01:52:20;17.30;99.90
48744;DHT22;34538;48.836;9.174;2023-06-26T01:55:03;17.30;99.90
48744;DHT22;34538;48.836;9.174;2023-06-26T01:57:32;17.30;99.90
48744;DHT22;34538;48.836;9.174;2023-06-26T02:00:03;17.30;99.90
48744;DHT22;34538;48.836;9.174;2023-06-26T02:02:40;17.30;99.90
48744;DHT22;34538;48.836;9.174;2023-06-26T02:05:07;17.20;99.90
48744;DHT22;34538;48.836;9.174;2023-06-26T02:07:35;17.20;99.90
48744;DHT22;34538;48.836;9.174;2023-06-26T02:10:02;17.20;99.90
48744;DHT22;34538;48.836;9.174;2023-06-26T02:12:29;17.20;99.90
48744;DHT22;34538;48.836;9.174;2023-06-26T02:14:56;17.20;99.90
48744;DHT22;34538;48.836;9.174;2023-06-26T02:17:25;17.20;99.90
48744;DHT22;34538;48.836;9.174;2023-06-26T02:19:54;17.20;99.90
48744;DHT22;34538;48.836;9.174;2023-06-26T02:22:21;17.10;99.90
48744;DHT22;34538;48.836;9.174;2023-06-26T02:24:48;17.10;99.90
48744;DHT22;34538;48.836;9.174;2023-06-26T02:27:15;17.10;99.90
48744;DHT22;34538;48.836;9.174;2023-06-26T02:29:42;17.00;99.90
48744;DHT22;34538;48.836;9.174;2023-06-26T02:32:08;17.00;99.90
48744;DHT22;34538;48.836;9.174;2023-06-26T02:34:37;17.00;99.90
48744;DHT22;34538;48.836;9.174;2023-06-26T02:37:04;17.00;99.90
48744;DHT22;34538;48.836;9.174;2023-06-26T02:39:32;17.00;99.90
48744;DHT22;34538;48.836;9.174;2023-06-26T02:41:59;16.90;99.90
48744;DHT22;34538;48.836;9.174;2023-06-26T02:44:26;17.00;99.90
48744;DHT22;34538;48.836;9.174;2023-06-26T02:46:53;16.90;99.90
48744;DHT22;34538;48.836;9.174;2023-06-26T02:49:20;16.90;99.90
48744;DHT22;34538;48.836;9.174;2023-06-26T02:51:48;16.90;99.90
48744;DHT22;34538;48.836;9.174;2023-06-26T02:54:22;16.90;99.90
48744;DHT22;34538;48.836;9.174;2023-06-26T02:56:53;16.90;99.90
48744;DHT22;34538;48.836;9.174;2023-06-26T02:59:24;16.90;99.90
48744;DHT22;34538;48.836;9.174;2023-06-26T03:01:52;16.90;99.90
48744;DHT22;34538;48.836;9.174;2023-06-26T03:04:23;16.90;99.90
48744;DHT22;34538;48.836;9.174;2023-06-26T03:06:51;16.90;99.90
48744;DHT22;34538;48.836;9.174;2023-06-26T03:09:18;16.80;99.90
48744;DHT22;34538;48.836;9.174;2023-06-26T03:11:45;16.80;99.90
48744;DHT22;34538;48.836;9.174;2023-06-26T03:14:12;16.80;99.90
48744;DHT22;34538;48.836;9.174;2023-06-26T03:16:39;16.80;99.90
48744;DHT22;34538;48.836;9.174;2023-06-26T03:19:06;16.70;99.90
48744;DHT22;34538;48.836;9.174;2023-06-26T03:21:49;16.70;99.90
48744;DHT22;34538;48.836;9.174;2023-06-26T03:24:18;16.70;99.90
48744;DHT22;34538;48.836;9.174;2023-06-26T03:26:45;16.70;99.90
48744;DHT22;34538;48.836;9.174;2023-06-26T03:29:12;16.70;99.90
48744;DHT22;34538;48.836;9.174;2023-06-26T03:31:40;16.70;99.90
48744;DHT22;34538;48.836;9.174;2023-06-26T03:34:07;16.70;99.90
48744;DHT22;34538;48.836;9.174;2023-06-26T03:36:33;16.70;99.90
48744;DHT22;34538;48.836;9.174;2023-06-26T03:39:02;16.70;99.90
48744;DHT22;34538;48.836;9.174;2023-06-26T03:41:31;16.80;99.90
48744;DHT22;34538;48.836;9.174;2023-06-26T03:43:58;16.80;99.90
48744;DHT22;34538;48.836;9.174;2023-06-26T03:46:31;16.80;99.90
48744;DHT22;34538;48.836;9.174;2023-06-26T03:48:58;16.80;99.90
48744;DHT22;34538;48.836;9.174;2023-06-26T03:51:25;16.80;99.90
48744;DHT22;34538;48.836;9.174;2023-06-26T03:53:53;16.80;99.90
48744;DHT22;34538;48.836;9.174;2023-06-26T03:56:20;16.80;99.90
48744;DHT22;34538;48.836;9.174;2023-06-26T03:58:49;16.80;99.90
48744;DHT22;34538;48.836;9.174;2023-06-26T04:01:16;16.80;99.90
48744;DHT22;34538;48.836;9.174;2023-06-26T04:03:45;16.80;99.90
48744;DHT22;34538;48.836;9.174;2023-06-26T04:06:12;16.90;99.90
48744;DHT22;34538;48.836;9.174;2023-06-26T04:08:39;17.00;99.90
48744;DHT22;34538;48.836;9.174;2023-06-26T04:11:06;17.00;99.90
48744;DHT22;34538;48.836;9.174;2023-06-26T04:13:33;17.10;99.90
48744;DHT22;34538;48.836;9.174;2023-06-26T04:16:01;17.30;99.90
48744;DHT22;34538;48.836;9.174;2023-06-26T04:18:28;17.50;99.90
48744;DHT22;34538;48.836;9.174;2023-06-26T04:21:05;17.60;99.90
48744;DHT22;34538;48.836;9.174;2023-06-26T04:23:33;17.70;99.90
48744;DHT22;34538;48.836;9.174;2023-06-26T04:26:00;17.90;99.90
48744;DHT22;34538;48.836;9.174;2023-06-26T04:28:28;18.00;99.90
48744;DHT22;34538;48.836;9.174;2023-06-26T04:30:55;18.10;99.90
48744;DHT22;34538;48.836;9.174;2023-06-26T04:33:23;18.20;99.90
48744;DHT22;34538;48.836;9.174;2023-06-26T04:35:51;18.40;99.90
48744;DHT22;34538;48.836;9.174;2023-06-26T04:38:18;18.50;99.90
48744;DHT22;34538;48.836;9.174;2023-06-26T04:40:45;18.50;99.90
48744;DHT22;34538;48.836;9.174;2023-06-26T04:43:12;18.70;99.90
48744;DHT22;34538;48.836;9.174;2023-06-26T04:45:38;18.70;99.90
48744;DHT22;34538;48.836;9.174;2023-06-26T04:48:05;18.80;99.90
48744;DHT22;34538;48.836;9.174;2023-06-26T04:50:33;18.90;99.90
48744;DHT22;34538;48.836;9.174;2023-06-26T04:53:00;19.10;99.90
48744;DHT22;34538;48.836;9.174;2023-06-26T04:55:28;19.20;99.90
48744;DHT22;34538;48.836;9.174;2023-06-26T04:57:55;19.50;99.90
48744;DHT22;34538;48.836;9.174;2023-06-26T05:00:22;19.70;99.90
48744;DHT22;34538;48.836;9.174;2023-06-26T05:02:50;20.00;99.90
48744;DHT22;34538;48.836;9.174;2023-06-26T05:05:24;20.20;99.90
48744;DHT22;34538;48.836;9.174;2023-06-26T05:07:54;20.50;99.90
48744;DHT22;34538;48.836;9.174;2023-06-26T05:10:21;20.80;99.90
48744;DHT22;34538;48.836;9.174;2023-06-26T05:12:48;21.10;99.90
48744;DHT22;34538;48.836;9.174;2023-06-26T05:15:14;21.40;99.90
48744;DHT22;34538;48.836;9.174;2023-06-26T05:17:41;21.60;99.90
48744;DHT22;34538;48.836;9.174;2023-06-26T05:20:09;21.80;99.90
48744;DHT22;34538;48.836;9.174;2023-06-26T05:22:37;22.00;99.90
48744;DHT22;34538;48.836;9.174;2023-06-26T05:25:08;22.20;99.90
48744;DHT22;34538;48.836;9.174;2023-06-26T05:27:36;22.40;99.90
48744;DHT22;34538;48.836;9.174;2023-06-26T05:30:04;22.60;99.90
48744;DHT22;34538;48.836;9.174;2023-06-26T05:32:34;22.80;99.90
48744;DHT22;34538;48.836;9.174;2023-06-26T05:35:02;23.00;99.90
48744;DHT22;34538;48.836;9.174;2023-06-26T05:37:31;23.10;99.90
48744;DHT22;34538;48.836;9.174;2023-06-26T05:39:59;23.20;99.90
48744;DHT22;34538;48.836;9.174;2023-06-26T05:42:28;23.30;99.30
48744;DHT22;34538;48.836;9.174;2023-06-26T05:44:55;23.50;99.70
48744;DHT22;34538;48.836;9.174;2023-06-26T05:47:22;23.60;99.20
48744;DHT22;34538;48.836;9.174;2023-06-26T05:49:49;23.70;99.00
48744;DHT22;34538;48.836;9.174;2023-06-26T05:52:17;23.80;98.70
48744;DHT22;34538;48.836;9.174;2023-06-26T05:54:44;24.00;97.60
48744;DHT22;34538;48.836;9.174;2023-06-26T05:57:13;24.20;97.60
48744;DHT22;34538;48.836;9.174;2023-06-26T05:59:43;24.20;97.00
48744;DHT22;34538;48.836;9.174;2023-06-26T06:02:10;24.30;96.80
48744;DHT22;34538;48.836;9.174;2023-06-26T06:04:37;24.20;96.70
48744;DHT22;34538;48.836;9.174;2023-06-26T06:07:04;24.30;97.00
48744;DHT22;34538;48.836;9.174;2023-06-26T06:09:31;24.30;96.40
48744;DHT22;34538;48.836;9.174;2023-06-26T06:11:58;24.20;96.90
48744;DHT22;34538;48.836;9.174;2023-06-26T06:14:25;24.20;97.10
48744;DHT22;34538;48.836;9.174;2023-06-26T06:16:53;24.30;97.30
48744;DHT22;34538;48.836;9.174;2023-06-26T06:19:20;24.30;96.90
48744;DHT22;34538;48.836;9.174;2023-06-26T06:21:47;24.30;96.40
48744;DHT22;34538;48.836;9.174;2023-06-26T06:24:14;24.30;96.80
48744;DHT22;34538;48.836;9.174;2023-06-26T06:26:40;24.40;96.30
48744;DHT22;34538;48.836;9.174;2023-06-26T06:29:07;24.50;95.50
48744;DHT22;34538;48.836;9.174;2023-06-26T06:31:34;24.60;96.10
48744;DHT22;34538;48.836;9.174;2023-06-26T06:34:02;24.80;95.60
48744;DHT22;34538;48.836;9.174;2023-06-26T06:36:29;25.00;95.60
48744;DHT22;34538;48.836;9.174;2023-06-26T06:38:56;25.00;95.30
48744;DHT22;34538;48.836;9.174;2023-06-26T06:41:23;25.00;95.20
48744;DHT22;34538;48.836;9.174;2023-06-26T06:43:50;25.00;95.30
48744;DHT22;34538;48.836;9.174;2023-06-26T06:46:17;25.00;94.90
48744;DHT22;34538;48.836;9.174;2023-06-26T06:48:43;25.00;94.90
48744;DHT22;34538;48.836;9.174;2023-06-26T06:51:13;25.00;95.10
48744;DHT22;34538;48.836;9.174;2023-06-26T06:53:40;25.10;94.50
48744;DHT22;34538;48.836;9.174;2023-06-26T06:56:06;25.20;94.30
48744;DHT22;34538;48.836;9.174;2023-06-26T06:58:33;25.20;94.10
48744;DHT22;34538;48.836;9.174;2023-06-26T07:01:01;25.30;94.90
48744;DHT22;34538;48.836;9.174;2023-06-26T07:03:29;25.50;94.80
48744;DHT22;34538;48.836;9.174;2023-06-26T07:05:56;25.60;94.10
48744;DHT22;34538;48.836;9.174;2023-06-26T07:08:24;25.60;94.40
48744;DHT22;34538;48.836;9.174;2023-06-26T07:10:51;25.70;93.70
48744;DHT22;34538;48.836;9.174;2023-06-26T07:13:18;25.70;93.40
48744;DHT22;34538;48.836;9.174;2023-06-26T07:15:45;25.70;93.80
48744;DHT22;34538;48.836;9.174;2023-06-26T07:18:13;25.80;93.50
48744;DHT22;34538;48.836;9.174;2023-06-26T07:20:40;25.80;93.00
48744;DHT22;34538;48.836;9.174;2023-06-26T07:23:08;25.80;93.70
48744;DHT22;34538;48.836;9.174;2023-06-26T07:25:36;25.90;92.80
48744;DHT22;34538;48.836;9.174;2023-06-26T07:28:03;25.90;92.30
48744;DHT22;34538;48.836;9.174;2023-06-26T07:30:30;25.90;92.60
48744;DHT22;34538;48.836;9.174;2023-06-26T07:32:56;25.90;92.50
48744;DHT22;34538;48.836;9.174;2023-06-26T07:35:23;25.90;92.80
48744;DHT22;34538;48.836;9.174;2023-06-26T07:37:53;26.00;92.70
48744;DHT22;34538;48.836;9.174;2023-06-26T07:40:19;26.00;92.60
48744;DHT22;34538;48.836;9.174;2023-06-26T07:42:48;26.10;92.80
48744;DHT22;34538;48.836;9.174;2023-06-26T07:45:15;26.20;93.00
48744;DHT22;34538;48.836;9.174;2023-06-26T07:47:42;26.40;92.80
48744;DHT22;34538;48.836;9.174;2023-06-26T07:50:09;26.40;92.80
48744;DHT22;34538;48.836;9.174;2023-06-26T07:52:36;26.50;92.10
48744;DHT22;34538;48.836;9.174;2023-06-26T07:55:04;26.60;92.00
48744;DHT22;34538;48.836;9.174;2023-06-26T07:57:31;26.70;91.60
48744;DHT22;34538;48.836;9.174;2023-06-26T07:59:59;26.70;91.90
48744;DHT22;34538;48.836;9.174;2023-06-26T08:02:26;26.80;91.60
48744;DHT22;34538;48.836;9.174;2023-06-26T08:04:52;26.90;91.70
48744;DHT22;34538;48.836;9.174;2023-06-26T08:07:19;27.00;91.10
48744;DHT22;34538;48.836;9.174;2023-06-26T08:09:46;27.10;91.00
48744;DHT22;34538;48.836;9.174;2023-06-26T08:12:13;27.20;91.20
48744;DHT22;34538;48.836;9.174;2023-06-26T08:14:40;27.30;91.50
48744;DHT22;34538;48.836;9.174;2023-06-26T08:17:08;27.40;90.90
48744;DHT22;34538;48.836;9.174;2023-06-26T08:19:35;27.60;90.40
48744;DHT22;34538;48.836;9.174;2023-06-26T08:22:01;27.80;90.30
48744;DHT22;34538;48.836;9.174;2023-06-26T08:24:28;27.90;88.40
48744;DHT22;34538;48.836;9.174;2023-06-26T08:26:55;28.00;88.20
48744;DHT22;34538;48.836;9.174;2023-06-26T08:29:22;28.10;88.70
48744;DHT22;34538;48.836;9.174;2023-06-26T08:31:49;28.20;89.60
48744;DHT22;34538;48.836;9.174;2023-06-26T08:34:17;28.30;90.00
48744;DHT22;34538;48.836;9.174;2023-06-26T08:36:44;28.30;88.80
48744;DHT22;34538;48.836;9.174;2023-06-26T08:39:10;28.40;88.80
48744;DHT22;34538;48.836;9.174;2023-06-26T08:41:37;28.50;89.30
48744;DHT22;34538;48.836;9.174;2023-06-26T08:44:04;28.50;87.20
48744;DHT22;34538;48.836;9.174;2023-06-26T08:46:31;28.60;88.30
48744;DHT22;34538;48.836;9.174;2023-06-26T08:49:04;28.60;87.20
48744;DHT22;34538;48.836;9.174;2023-06-26T08:51:36;28.60;88.00
48744;DHT22;34538;48.836;9.174;2023-06-26T08:54:07;28.70;87.60
48744;DHT22;34538;48.836;9.174;2023-06-26T08:56:37;28.80;86.20
48744;DHT22;34538;48.836;9.174;2023-06-26T08:59:05;28.80;85.80
48744;DHT22;34538;48.836;9.174;2023-06-26T09:01:33;28.90;85.80
48744;DHT22;34538;48.836;9.174;2023-06-26T09:04:00;28.90;85.00
48744;DHT22;34538;48.836;9.174;2023-06-26T09:06:27;28.90;84.80
48744;DHT22;34538;48.836;9.174;2023-06-26T09:08:55;29.00;85.50
48744;DHT22;34538;48.836;9.174;2023-06-26T09:11:22;29.10;84.10
48744;DHT22;34538;48.836;9.174;2023-06-26T09:13:49;29.20;85.00
48744;DHT22;34538;48.836;9.174;2023-06-26T09:16:16;29.30;85.30
48744;DHT22;34538;48.836;9.174;2023-06-26T09:18:45;29.50;84.60
48744;DHT22;34538;48.836;9.174;2023-06-26T09:21:12;29.50;85.00
48744;DHT22;34538;48.836;9.174;2023-06-26T09:23:40;29.60;84.50
48744;DHT22;34538;48.836;9.174;2023-06-26T09:26:09;29.60;83.40
48744;DHT22;34538;48.836;9.174;2023-06-26T09:28:36;29.70;81.70
48744;DHT22;34538;48.836;9.174;2023-06-26T09:31:03;29.70;81.00
48744;DHT22;34538;48.836;9.174;2023-06-26T09:33:33;29.70;81.30
48744;DHT22;34538;48.836;9.174;2023-06-26T09:36:02;29.60;80.80
48744;DHT22;34538;48.836;9.174;2023-06-26T09:38:31;29.70;81.20
48744;DHT22;34538;48.836;9.174;2023-06-26T09:40:58;29.70;81.90
48744;DHT22;34538;48.836;9.174;2023-06-26T09:43:26;29.80;81.10
48744;DHT22;34538;48.836;9.174;2023-06-26T09:45:53;29.80;81.30
48744;DHT22;34538;48.836;9.174;2023-06-26T09:48:20;30.00;81.10
48744;DHT22;34538;48.836;9.174;2023-06-26T09:50:48;30.10;82.00
48744;DHT22;34538;48.836;9.174;2023-06-26T09:53:16;30.20;80.70
48744;DHT22;34538;48.836;9.174;2023-06-26T09:55:44;30.30;80.50
48744;DHT22;34538;48.836;9.174;2023-06-26T09:58:12;30.20;80.40
48744;DHT22;34538;48.836;9.174;2023-06-26T10:00:42;30.10;81.00
48744;DHT22;34538;48.836;9.174;2023-06-26T10:03:10;30.00;81.70
48744;DHT22;34538;48.836;9.174;2023-06-26T10:05:38;30.00;82.10
48744;DHT22;34538;48.836;9.174;2023-06-26T10:08:05;29.90;82.50
48744;DHT22;34538;48.836;9.174;2023-06-26T10:10:34;29.70;82.00
48744;DHT22;34538;48.836;9.174;2023-06-26T10:13:06;29.60;82.90
48744;DHT22;34538;48.836;9.174;2023-06-26T10:15:35;29.40;83.00
48744;DHT22;34538;48.836;9.174;2023-06-26T10:18:05;29.30;84.00
48744;DHT22;34538;48.836;9.174;2023-06-26T10:20:32;29.30;84.80
48744;DHT22;34538;48.836;9.174;2023-06-26T10:23:00;29.50;85.00
48744;DHT22;34538;48.836;9.174;2023-06-26T10:25:29;29.70;84.20
48744;DHT22;34538;48.836;9.174;2023-06-26T10:28:00;29.80;84.20
48744;DHT22;34538;48.836;9.174;2023-06-26T10:30:31;29.80;84.30
48744;DHT22;34538;48.836;9.174;2023-06-26T10:33:00;29.80;84.90
48744;DHT22;34538;48.836;9.174;2023-06-26T10:35:30;29.80;84.20
48744;DHT22;34538;48.836;9.174;2023-06-26T10:38:00;29.80;84.40
48744;DHT22;34538;48.836;9.174;2023-06-26T10:40:33;29.80;85.00
48744;DHT22;34538;48.836;9.174;2023-06-26T10:43:06;29.90;83.30
48744;DHT22;34538;48.836;9.174;2023-06-26T10:45:34;30.00;83.30
48744;DHT22;34538;48.836;9.174;2023-06-26T10:48:01;30.00;83.00
48744;DHT22;34538;48.836;9.174;2023-06-26T10:50:31;30.10;82.50
48744;DHT22;34538;48.836;9.174;2023-06-26T10:53:08;30.10;80.80
48744;DHT22;34538;48.836;9.174;2023-06-26T10:55:35;30.10;80.90
48744;DHT22;34538;48.836;9.174;2023-06-26T10:58:02;30.00;81.10
48744;DHT22;34538;48.836;9.174;2023-06-26T11:00:29;30.00;82.50
48744;DHT22;34538;48.836;9.174;2023-06-26T11:02:56;30.10;81.80
48744;DHT22;34538;48.836;9.174;2023-06-26T11:05:24;30.10;81.80
48744;DHT22;34538;48.836;9.174;2023-06-26T11:08:07;30.20;82.50
48744;DHT22;34538;48.836;9.174;2023-06-26T11:10:51;30.30;82.50
48744;DHT22;34538;48.836;9.174;2023-06-26T11:13:19;30.40;81.80
48744;DHT22;34538;48.836;9.174;2023-06-26T11:15:46;30.50;81.90
48744;DHT22;34538;48.836;9.174;2023-06-26T11:18:14;30.50;82.40
48744;DHT22;34538;48.836;9.174;2023-06-26T11:20:41;30.50;81.10
48744;DHT22;34538;48.836;9.174;2023-06-26T11:23:09;30.40;80.30
48744;DHT22;34538;48.836;9.174;2023-06-26T11:25:37;30.40;81.80
48744;DHT22;34538;48.836;9.174;2023-06-26T11:28:05;30.30;83.50
48744;DHT22;34538;48.836;9.174;2023-06-26T11:30:32;30.40;84.80
48744;DHT22;34538;48.836;9.174;2023-06-26T11:33:05;30.40;84.30
48744;DHT22;34538;48.836;9.174;2023-06-26T11:35:33;30.30;84.20
48744;DHT22;34538;48.836;9.174;2023-06-26T11:38:01;30.40;84.20
48744;DHT22;34538;48.836;9.174;2023-06-26T11:40:33;30.30;84.80
48744;DHT22;34538;48.836;9.174;2023-06-26T11:43:00;30.20;85.20
48744;DHT22;34538;48.836;9.174;2023-06-26T11:45:29;30.10;86.10
48744;DHT22;34538;48.836;9.174;2023-06-26T11:47:57;30.10;85.90
48744;DHT22;34538;48.836;9.174;2023-06-26T11:50:24;30.10;86.20
48744;DHT22;34538;48.836;9.174;2023-06-26T11:52:55;30.10;86.10
48744;DHT22;34538;48.836;9.174;2023-06-26T11:55:23;30.10;86.40
48744;DHT22;34538;48.836;9.174;2023-06-26T11:57:53;30.00;86.30
48744;DHT22;34538;48.836;9.174;2023-06-26T12:00:21;29.90;86.00
48744;DHT22;34538;48.836;9.174;2023-06-26T12:02:48;29.70;86.40
48744;DHT22;34538;48.836;9.174;2023-06-26T12:05:17;29.60;88.00
48744;DHT22;34538;48.836;9.174;2023-06-26T12:07:46;29.60;88.00
48744;DHT22;34538;48.836;9.174;2023-06-26T12:10:14;29.70;88.00
48744;DHT22;34538;48.836;9.174;2023-06-26T12:12:41;29.80;88.10
48744;DHT22;34538;48.836;9.174;2023-06-26T12:15:13;29.80;87.30
48744;DHT22;34538;48.836;9.174;2023-06-26T12:17:40;29.80;87.40
48744;DHT22;34538;48.836;9.174;2023-06-26T12:20:17;29.90;87.40
48744;DHT22;34538;48.836;9.174;2023-06-26T12:22:46;30.00;87.90
48744;DHT22;34538;48.836;9.174;2023-06-26T12:25:14;30.20;86.70
48744;DHT22;34538;48.836;9.174;2023-06-26T12:27:41;30.40;86.30
48744;DHT22;34538;48.836;9.174;2023-06-26T12:30:10;30.60;85.80
48744;DHT22;34538;48.836;9.174;2023-06-26T12:32:37;30.80;85.30
48744;DHT22;34538;48.836;9.174;2023-06-26T12:35:04;30.90;85.70
48744;DHT22;34538;48.836;9.174;2023-06-26T12:37:36;31.10;85.60
48744;DHT22;34538;48.836;9.174;2023-06-26T12:40:16;31.20;84.80
48744;DHT22;34538;48.836;9.174;2023-06-26T12:42:45;31.30;84.30
48744;DHT22;34538;48.836;9.174;2023-06-26T12:45:14;31.40;84.90
48744;DHT22;34538;48.836;9.174;2023-06-26T12:47:41;31.60;84.00
48744;DHT22;34538;48.836;9.174;2023-06-26T12:50:08;31.60;83.90
48744;DHT22;34538;48.836;9.174;2023-06-26T12:52:35;31.50;83.50
48744;DHT22;34538;48.836;9.174;2023-06-26T12:55:02;31.50;83.70
48744;DHT22;34538;48.836;9.174;2023-06-26T12:57:29;31.50;83.10
48744;DHT22;34538;48.836;9.174;2023-06-26T12:59:56;31.50;82.90
48744;DHT22;34538;48.836;9.174;2023-06-26T13:02:24;31.50;83.30
48744;DHT22;34538;48.836;9.174;2023-06-26T13:04:51;31.50;83.50
48744;DHT22;34538;48.836;9.174;2023-06-26T13:07:17;31.60;83.80
48744;DHT22;34538;48.836;9.174;2023-06-26T13:09:44;31.60;82.00
48744;DHT22;34538;48.836;9.174;2023-06-26T13:12:14;31.60;82.60
48744;DHT22;34538;48.836;9.174;2023-06-26T13:14:41;31.60;81.70
48744;DHT22;34538;48.836;9.174;2023-06-26T13:17:08;31.50;81.50
48744;DHT22;34538;48.836;9.174;2023-06-26T13:19:36;31.40;81.40
48744;DHT22;34538;48.836;9.174;2023-06-26T13:22:03;31.20;81.10
48744;DHT22;34538;48.836;9.174;2023-06-26T13:24:30;31.10;81.50
48744;DHT22;34538;48.836;9.174;2023-06-26T13:26:57;31.10;81.40
48744;DHT22;34538;48.836;9.174;2023-06-26T13:29:24;31.00;80.60
48744;DHT22;34538;48.836;9.174;2023-06-26T13:31:51;30.70;80.20
48744;DHT22;34538;48.836;9.174;2023-06-26T13:34:21;30.70;80.80
48744;DHT22;34538;48.836;9.174;2023-06-26T13:36:50;30.70;81.00
48744;DHT22;34538;48.836;9.174;2023-06-26T13:39:17;30.70;81.20
48744;DHT22;34538;48.836;9.174;2023-06-26T13:41:44;30.70;80.90
48744;DHT22;34538;48.836;9.174;2023-06-26T13:44:11;30.70;80.20
48744;DHT22;34538;48.836;9.174;2023-06-26T13:46:38;30.70;79.40
48744;DHT22;34538;48.836;9.174;2023-06-26T13:49:05;30.70;78.70
48744;DHT22;34538;48.836;9.174;2023-06-26T13:51:32;30.60;78.60
48744;DHT22;34538;48.836;9.174;2023-06-26T13:54:00;30.50;78.60
48744;DHT22;34538;48.836;9.174;2023-06-26T13:56:27;30.40;78.30
48744;DHT22;34538;48.836;9.174;2023-06-26T13:58:56;30.40;78.00
48744;DHT22;34538;48.836;9.174;2023-06-26T14:01:23;30.40;78.70
48744;DHT22;34538;48.836;9.174;2023-06-26T14:03:50;30.40;78.40
48744;DHT22;34538;48.836;9.174;2023-06-26T14:06:16;30.40;77.70
48744;DHT22;34538;48.836;9.174;2023-06-26T14:08:43;30.30;78.00
48744;DHT22;34538;48.836;9.174;2023-06-26T14:11:12;30.30;77.70
48744;DHT22;34538;48.836;9.174;2023-06-26T14:13:39;30.20;78.00
48744;DHT22;34538;48.836;9.174;2023-06-26T14:16:05;30.20;77.60
48744;DHT22;34538;48.836;9.174;2023-06-26T14:18:32;30.10;77.20
48744;DHT22;34538;48.836;9.174;2023-06-26T14:21:00;30.10;78.10
48744;DHT22;34538;48.836;9.174;2023-06-26T14:23:29;30.10;76.20
48744;DHT22;34538;48.836;9.174;2023-06-26T14:25:56;30.10;76.00
48744;DHT22;34538;48.836;9.174;2023-06-26T14:28:25;30.10;76.10
48744;DHT22;34538;48.836;9.174;2023-06-26T14:30:51;30.10;76.70
48744;DHT22;34538;48.836;9.174;2023-06-26T14:33:18;30.00;77.00
48744;DHT22;34538;48.836;9.174;2023-06-26T14:35:45;30.10;77.40
48744;DHT22;34538;48.836;9.174;2023-06-26T14:38:12;30.10;77.30
48744;DHT22;34538;48.836;9.174;2023-06-26T14:40:39;30.20;76.40
48744;DHT22;34538;48.836;9.174;2023-06-26T14:43:06;30.20;76.70
48744;DHT22;34538;48.836;9.174;2023-06-26T14:45:34;30.20;76.50
48744;DHT22;34538;48.836;9.174;2023-06-26T14:48:01;30.10;76.50
48744;DHT22;34538;48.836;9.174;2023-06-26T14:50:28;30.00;77.10
48744;DHT22;34538;48.836;9.174;2023-06-26T14:52:54;29.80;78.10
48744;DHT22;34538;48.836;9.174;2023-06-26T14:55:21;29.80;77.40
48744;DHT22;34538;48.836;9.174;2023-06-26T14:57:48;29.80;77.50
48744;DHT22;34538;48.836;9.174;2023-06-26T15:00:16;29.80;77.80
48744;DHT22;34538;48.836;9.174;2023-06-26T15:02:44;29.80;77.90
48744;DHT22;34538;48.836;9.174;2023-06-26T15:05:11;29.80;77.10
48744;DHT22;34538;48.836;9.174;2023-06-26T15:07:38;29.80;77.30
48744;DHT22;34538;48.836;9.174;2023-06-26T15:10:06;29.70;77.40
48744;DHT22;34538;48.836;9.174;2023-06-26T15:12:33;29.60;77.10
48744;DHT22;34538;48.836;9.174;2023-06-26T15:15:00;29.60;77.70
48744;DHT22;34538;48.836;9.174;2023-06-26T15:17:27;29.70;77.00
48744;DHT22;34538;48.836;9.174;2023-06-26T15:19:55;29.70;76.90
48744;DHT22;34538;48.836;9.174;2023-06-26T15:22:22;29.70;76.80
48744;DHT22;34538;48.836;9.174;2023-06-26T15:24:52;29.70;76.30
48744;DHT22;34538;48.836;9.174;2023-06-26T15:27:19;29.70;76.40
48744;DHT22;34538;48.836;9.174;2023-06-26T15:29:46;29.70;76.60
48744;DHT22;34538;48.836;9.174;2023-06-26T15:32:13;29.60;76.40
48744;DHT22;34538;48.836;9.174;2023-06-26T15:34:41;29.50;76.70